Aviation Digital Data Service (ADDS)

Output produced by METARs form (2337 UTC 25 June 2019)
found at http://aviationweather.gov/metar/data/
 
KLFT 252253Z 00000KT 10SM CLR 27/23 A3005 RMK AO2 SLP177 T02720233
KLFT 251812Z 2518/2618 25009KT P6SM VCTS SCT020CB BKN050 
     TEMPO 2518/2520 VRB15G25KT 3SM SHRA BKN020 
     FM252100 32011KT P6SM VCSH SCT050 BKN120 
     FM260100 VRB06KT P6SM VCSH SCT025 BKN050